Terminal Aerodrome Forecast
Issued by NWS

Home | Current Version | Previous Version | Text Only | Print | Product List | Glossary On
Versions: 1 2 3 4 5 6 7 8 9 10 11 12 13 14
000
FTUS44 KTSA 290500
TAFFYV
TAF
KFYV 290530Z 2906/3006 22008KT P6SM BKN250
     FM291200 31008KT P6SM SCT250
     FM291500 34014G20KT P6SM SCT025 SCT250
      TEMPO 2916/2920 BKN025
     FM300000 35007KT P6SM SCT250=

USA.gov is the U.S. government's official web portal to all federal, state and local government web resources and services.